Time;durP1;ratioP1;P1;durP2;ratioP2;P2;SDS_P1;SDS_P2;PMS_P1;PMS_P2;Temp;Humidity;BMP_temperature;BMP_pressure;BME280_temperature;BME280_humidity;BME280_pressure;Samples;Min_cycle;Max_cycle;Signal;HPM_P1;HPM_P2
2022/09/20 00:00:03;;;;;;;;;;;20.60;91.00;;;;;;5071904;28;19932;-63
2022/09/20 00:02:30;;;;;;;;;;;20.60;91.00;;;;;;5070764;28;20404;-65
2022/09/20 00:04:55;;;;;;;;;;;20.30;90.90;;;;;;5071788;28;20519;-65
2022/09/20 00:07:21;;;;;;;;;;;20.50;90.90;;;;;;5053825;28;19964;-65
2022/09/20 00:09:47;;;;;;;;;;;20.60;91.00;;;;;;5053491;28;20374;-62
2022/09/20 00:12:12;;;;;;;;;;;20.70;91.10;;;;;;5062373;28;19928;-62
2022/09/20 00:14:38;;;;;;;;;;;20.60;91.00;;;;;;5066906;28;19924;-68
2022/09/20 00:17:04;;;;;;;;;;;20.60;91.00;;;;;;5064843;28;19924;-67
2022/09/20 00:19:29;;;;;;;;;;;20.50;91.00;;;;;;5073013;28;20374;-66
2022/09/20 00:21:55;;;;;;;;;;;20.60;91.00;;;;;;5074009;28;19925;-64
2022/09/20 00:24:20;;;;;;;;;;;20.80;91.10;;;;;;5064280;28;20035;-62
2022/09/20 00:26:46;;;;;;;;;;;20.70;91.10;;;;;;5063410;28;19973;-66
2022/09/20 00:29:12;;;;;;;;;;;20.40;91.00;;;;;;5061895;28;20007;-63
2022/09/20 00:31:39;;;;;;;;;;;20.70;91.00;;;;;;5070481;28;19924;-62
2022/09/20 00:36:48;;;;;;;;;;;20.80;91.00;;;;;;5072542;28;19932;-62
2022/09/20 00:39:14;;;;;;;;;;;20.40;90.90;;;;;;5070556;28;19924;-62
2022/09/20 00:41:40;;;;;;;;;;;20.50;91.00;;;;;;5073727;28;19924;-63
2022/09/20 00:44:24;;;;;;;;;;;20.30;90.90;;;;;;5065601;28;19928;-65
2022/09/20 00:46:50;;;;;;;;;;;20.40;90.90;;;;;;5076063;28;19974;-64
2022/09/20 00:49:23;;;;;;;;;;;20.50;90.90;;;;;;5056930;28;19956;-61
2022/09/20 00:51:49;;;;;;;;;;;20.50;90.90;;;;;;5076406;28;19971;-62
2022/09/20 00:54:15;;;;;;;;;;;20.50;90.80;;;;;;5075378;28;19924;-63
2022/09/20 00:56:42;;;;;;;;;;;20.30;90.80;;;;;;5064195;28;19943;-63
2022/09/20 00:59:18;;;;;;;;;;;20.30;90.80;;;;;;5056343;28;20290;-62
2022/09/20 01:01:45;;;;;;;;;;;20.50;91.00;;;;;;5092358;28;20434;-62
2022/09/20 01:04:13;;;;;;;;;;;20.40;90.90;;;;;;5068798;28;19925;-66
2022/09/20 01:06:38;;;;;;;;;;;20.40;90.90;;;;;;5057036;28;19964;-62
2022/09/20 01:09:06;;;;;;;;;;;20.30;90.80;;;;;;5071977;28;19967;-62
2022/09/20 01:11:31;;;;;;;;;;;20.40;90.90;;;;;;5057611;28;20417;-61
2022/09/20 01:13:57;;;;;;;;;;;20.40;90.90;;;;;;5059610;28;19978;-67
2022/09/20 01:16:23;;;;;;;;;;;20.30;90.90;;;;;;5074706;28;19925;-68
2022/09/20 01:18:49;;;;;;;;;;;20.60;91.00;;;;;;5074530;28;20293;-62
2022/09/20 01:21:15;;;;;;;;;;;20.50;90.90;;;;;;5072100;28;19970;-64
2022/09/20 01:23:45;;;;;;;;;;;20.40;90.90;;;;;;5076251;28;20319;-63
2022/09/20 01:26:13;;;;;;;;;;;20.40;90.90;;;;;;5073383;28;19924;-62
2022/09/20 01:28:41;;;;;;;;;;;20.40;90.90;;;;;;5064414;28;19982;-62
2022/09/20 01:31:09;;;;;;;;;;;20.50;90.90;;;;;;5075135;28;19929;-62
2022/09/20 01:33:53;;;;;;;;;;;20.30;90.90;;;;;;5071511;28;19932;-62
2022/09/20 01:36:19;;;;;;;;;;;;;;;;;;5065644;28;19924;-67
2022/09/20 01:38:52;;;;;;;;;;;20.30;90.90;;;;;;5073600;28;19927;-62
2022/09/20 01:41:38;;;;;;;;;;;20.50;90.90;;;;;;5055493;28;20281;-62
2022/09/20 01:44:11;;;;;;;;;;;20.30;90.90;;;;;;5055536;28;19924;-62
2022/09/20 01:46:36;;;;;;;;;;;20.30;90.80;;;;;;5055427;28;19949;-68
2022/09/20 01:49:31;;;;;;;;;;;20.40;90.90;;;;;;5065085;28;20007;-67
2022/09/20 01:51:57;;;;;;;;;;;20.30;90.80;;;;;;5040542;28;20013;-68
2022/09/20 01:54:35;;;;;;;;;;;20.50;90.90;;;;;;5076594;28;20023;-62
2022/09/20 01:57:01;;;;;;;;;;;20.30;90.80;;;;;;5074479;28;19924;-62
2022/09/20 01:59:40;;;;;;;;;;;20.10;90.80;;;;;;5063961;28;20285;-61
2022/09/20 02:02:06;;;;;;;;;;;20.40;90.80;;;;;;5071693;28;19982;-62
2022/09/20 02:04:47;;;;;;;;;;;20.40;90.90;;;;;;5073851;28;20325;-63
2022/09/20 02:07:19;;;;;;;;;;;20.40;90.80;;;;;;5055951;28;19925;-63
2022/09/20 02:10:03;;;;;;;;;;;20.40;90.80;;;;;;5060832;28;19924;-64
2022/09/20 02:12:31;;;;;;;;;;;20.30;90.80;;;;;;5075528;28;20324;-62
2022/09/20 02:15:20;;;;;;;;;;;20.70;90.90;;;;;;5072224;28;20460;-62
2022/09/20 02:18:01;;;;;;;;;;;20.50;90.90;;;;;;5010577;28;19933;-62
2022/09/20 02:20:42;;;;;;;;;;;20.30;90.80;;;;;;4994383;28;20009;-61
2022/09/20 02:23:12;;;;;;;;;;;20.40;90.80;;;;;;5014244;28;19933;-63
2022/09/20 02:26:03;;;;;;;;;;;20.20;90.80;;;;;;4990571;28;19926;-64
2022/09/20 02:28:44;;;;;;;;;;;20.20;90.70;;;;;;5000804;28;19996;-65
2022/09/20 02:31:15;;;;;;;;;;;20.40;90.80;;;;;;5013197;28;20012;-67
2022/09/20 02:34:02;;;;;;;;;;;20.30;90.80;;;;;;5013873;28;19936;-63
2022/09/20 02:36:42;;;;;;;;;;;20.30;90.80;;;;;;4995742;28;20355;-63
2022/09/20 02:39:11;;;;;;;;;;;20.20;90.80;;;;;;4997686;28;20398;-61
2022/09/20 02:41:36;;;;;;;;;;;20.30;90.80;;;;;;5002436;28;19929;-68
2022/09/20 02:44:34;;;;;;;;;;;20.30;90.80;;;;;;5010610;28;20304;-62
2022/09/20 02:47:04;;;;;;;;;;;20.40;90.50;;;;;;4949494;29;19932;-64
2022/09/20 02:49:33;;;;;;;;;;;20.40;90.80;;;;;;4920629;29;19989;-61
2022/09/20 02:52:02;;;;;;;;;;;20.20;90.70;;;;;;4939070;29;20009;-62
2022/09/20 02:54:29;;;;;;;;;;;20.30;90.70;;;;;;4967362;28;19980;-61
2022/09/20 02:57:00;;;;;;;;;;;20.30;90.70;;;;;;5008905;28;19932;-64
2022/09/20 02:59:32;;;;;;;;;;;20.30;90.70;;;;;;5017096;28;20284;-62
2022/09/20 03:02:09;;;;;;;;;;;20.10;90.70;;;;;;5036296;28;19924;-70
2022/09/20 03:04:35;;;;;;;;;;;20.40;90.80;;;;;;5032324;28;19926;-65
2022/09/20 03:07:01;;;;;;;;;;;20.30;90.70;;;;;;5026978;28;19925;-64
2022/09/20 03:09:27;;;;;;;;;;;20.30;90.70;;;;;;5032221;28;20288;-63
2022/09/20 03:11:55;;;;;;;;;;;20.20;90.80;;;;;;5031565;28;20306;-62
2022/09/20 03:14:26;;;;;;;;;;;20.50;90.80;;;;;;5031897;28;19959;-62
2022/09/20 03:17:03;;;;;;;;;;;20.20;90.70;;;;;;5010257;28;19926;-63
2022/09/20 03:19:47;;;;;;;;;;;20.30;90.80;;;;;;5038874;28;20044;-61
2022/09/20 03:22:28;;;;;;;;;;;20.30;90.80;;;;;;5041546;28;19925;-62
2022/09/20 03:25:00;;;;;;;;;;;20.20;90.80;;;;;;5053479;28;19924;-68
2022/09/20 03:27:45;;;;;;;;;;;20.40;90.80;;;;;;5072053;28;19934;-69
2022/09/20 03:30:19;;;;;;;;;;;20.20;90.80;;;;;;5072457;28;19928;-62
2022/09/20 03:32:48;;;;;;;;;;;20.30;90.80;;;;;;5074873;28;19931;-65
2022/09/20 03:35:32;;;;;;;;;;;20.10;90.70;;;;;;5063262;28;20393;-65
2022/09/20 03:38:02;;;;;;;;;;;20.10;90.70;;;;;;5054570;28;19932;-68
2022/09/20 03:40:27;;;;;;;;;;;20.30;90.70;;;;;;5066427;28;19924;-62
2022/09/20 03:42:53;;;;;;;;;;;20.30;90.70;;;;;;5060155;28;19925;-63
2022/09/20 03:45:19;;;;;;;;;;;;;;;;;;5054390;28;19925;-71
2022/09/20 03:48:04;;;;;;;;;;;20.20;90.60;;;;;;5066603;28;19925;-63
2022/09/20 03:50:35;;;;;;;;;;;20.20;90.60;;;;;;5059341;28;19951;-69
2022/09/20 03:53:21;;;;;;;;;;;20.20;90.60;;;;;;5073908;28;19921;-63
2022/09/20 03:55:49;;;;;;;;;;;20.10;90.60;;;;;;5064918;28;19925;-66
2022/09/20 03:58:18;;;;;;;;;;;20.30;90.60;;;;;;5052950;28;19924;-63
2022/09/20 04:00:44;;;;;;;;;;;20.00;90.50;;;;;;5087429;28;19928;-62
2022/09/20 04:03:16;;;;;;;;;;;20.10;90.50;;;;;;5072077;28;19931;-65
2022/09/20 04:05:42;;;;;;;;;;;20.10;90.50;;;;;;5072023;28;19978;-67
2022/09/20 04:08:46;;;;;;;;;;;20.20;90.50;;;;;;5062195;28;19929;-71
2022/09/20 04:11:14;;;;;;;;;;;;;;;;;;5017477;28;19933;-63
2022/09/20 04:13:55;;;;;;;;;;;20.10;90.50;;;;;;5012042;28;19981;-62
2022/09/20 04:16:20;;;;;;;;;;;;;;;;;;5004257;28;20235;-69
2022/09/20 04:18:57;;;;;;;;;;;20.30;90.50;;;;;;5011667;28;20009;-62
2022/09/20 04:21:27;;;;;;;;;;;19.90;90.40;;;;;;5018956;28;20310;-64
2022/09/20 04:24:10;;;;;;;;;;;20.20;90.50;;;;;;5004291;28;19926;-62
2022/09/20 04:26:38;;;;;;;;;;;20.20;90.40;;;;;;5020125;28;19933;-61
2022/09/20 04:29:22;;;;;;;;;;;19.80;90.30;;;;;;5015508;28;19932;-61
2022/09/20 04:31:52;;;;;;;;;;;20.10;90.40;;;;;;5029024;28;19975;-61
2022/09/20 04:34:20;;;;;;;;;;;20.30;90.30;;;;;;5031031;28;19929;-62
2022/09/20 04:36:45;;;;;;;;;;;19.80;90.30;;;;;;5015563;28;19971;-61
2022/09/20 04:39:30;;;;;;;;;;;20.20;90.40;;;;;;5012295;28;19926;-61
2022/09/20 04:41:58;;;;;;;;;;;20.10;90.30;;;;;;5031944;28;20436;-61
2022/09/20 04:44:34;;;;;;;;;;;20.30;90.40;;;;;;5063134;28;20324;-61
2022/09/20 04:47:18;;;;;;;;;;;20.10;90.30;;;;;;5071034;28;19931;-62
2022/09/20 04:50:04;;;;;;;;;;;20.00;90.30;;;;;;5072865;28;20420;-61
2022/09/20 04:52:38;;;;;;;;;;;20.20;90.30;;;;;;5056826;28;19947;-61
2022/09/20 04:55:04;;;;;;;;;;;20.30;90.30;;;;;;5069648;28;20291;-61
2022/09/20 04:57:56;;;;;;;;;;;19.90;90.30;;;;;;5057888;28;19925;-62
2022/09/20 05:00:23;;;;;;;;;;;;;;;;;;5049160;28;19924;-63
2022/09/20 05:03:09;;;;;;;;;;;19.90;90.20;;;;;;5070702;28;19932;-61
2022/09/20 05:06:05;;;;;;;;;;;20.00;90.20;;;;;;5069145;28;20012;-61
2022/09/20 05:08:33;;;;;;;;;;;19.90;90.20;;;;;;5011788;28;19926;-61
2022/09/20 05:11:01;;;;;;;;;;;20.10;90.20;;;;;;5004050;28;19948;-61
2022/09/20 05:13:27;;;;;;;;;;;;;;;;;;4997092;28;19933;-63
2022/09/20 05:15:59;;;;;;;;;;;19.90;90.20;;;;;;4991464;28;19926;-61
2022/09/20 05:18:32;;;;;;;;;;;20.10;90.20;;;;;;5000075;28;19925;-61
2022/09/20 05:21:21;;;;;;;;;;;20.10;90.20;;;;;;5010320;28;19925;-62
2022/09/20 05:23:48;;;;;;;;;;;;;;;;;;4999958;28;19988;-66
2022/09/20 05:26:13;;;;;;;;;;;20.20;90.20;;;;;;4976723;28;19925;-61
2022/09/20 05:28:48;;;;;;;;;;;20.00;90.20;;;;;;4975677;28;19925;-62
2022/09/20 05:31:32;;;;;;;;;;;20.10;90.20;;;;;;4995558;28;19932;-61
2022/09/20 05:34:07;;;;;;;;;;;19.70;90.00;;;;;;5000735;28;19933;-62
2022/09/20 05:36:44;;;;;;;;;;;19.80;90.00;;;;;;4992869;28;19926;-62
2022/09/20 05:39:10;;;;;;;;;;;;;;;;;;4998221;28;19926;-63
2022/09/20 05:42:02;;;;;;;;;;;19.80;90.00;;;;;;4979356;28;19937;-63
2022/09/20 05:44:36;;;;;;;;;;;20.10;90.10;;;;;;5007463;28;19924;-62
2022/09/20 05:47:07;;;;;;;;;;;20.00;90.00;;;;;;5061501;28;19983;-68
2022/09/20 05:49:33;;;;;;;;;;;;;;;;;;5058931;28;19925;-67
2022/09/20 05:51:59;;;;;;;;;;;;;;;;;;5074454;28;19925;-61
2022/09/20 05:54:44;;;;;;;;;;;20.20;90.10;;;;;;5074370;28;20023;-62
2022/09/20 05:57:32;;;;;;;;;;;19.90;90.00;;;;;;5074652;28;19924;-63
2022/09/20 05:59:59;;;;;;;;;;;19.80;90.00;;;;;;4999592;28;19926;-61
2022/09/20 06:02:43;;;;;;;;;;;19.70;89.80;;;;;;4995570;28;20020;-61
2022/09/20 06:05:09;;;;;;;;;;;;;;;;;;4995888;28;20391;-65
2022/09/20 06:07:40;;;;;;;;;;;19.80;89.80;;;;;;5013914;28;20032;-63
2022/09/20 06:10:06;;;;;;;;;;;;;;;;;;5013899;28;19929;-67
2022/09/20 06:12:44;;;;;;;;;;;20.20;89.90;;;;;;5000347;28;19995;-68
2022/09/20 06:15:14;;;;;;;;;;;20.00;89.70;;;;;;4968540;28;20303;-68
2022/09/20 06:17:42;;;;;;;;;;;20.00;89.70;;;;;;5002531;28;19949;-70
2022/09/20 06:20:24;;;;;;;;;;;19.90;89.60;;;;;;4994600;28;19926;-61
2022/09/20 06:22:51;;;;;;;;;;;20.20;89.50;;;;;;4995097;28;19941;-62
2022/09/20 06:25:22;;;;;;;;;;;20.50;89.40;;;;;;4997695;28;19980;-69
2022/09/20 06:28:05;;;;;;;;;;;20.50;89.40;;;;;;5013134;28;19925;-62
2022/09/20 06:30:36;;;;;;;;;;;20.50;89.40;;;;;;4994426;28;19926;-63
2022/09/20 06:33:04;;;;;;;;;;;20.70;89.40;;;;;;4982707;28;20012;-62
2022/09/20 06:35:40;;;;;;;;;;;20.80;89.00;;;;;;5012879;28;19933;-63
2022/09/20 06:43:43;;;;;;;;;;;21.30;88.20;;;;;;5056255;28;20283;-80
2022/09/20 06:46:10;;;;;;;;;;;21.40;87.80;;;;;;5055203;28;20360;-79
2022/09/20 06:48:38;;;;;;;;;;;21.70;87.70;;;;;;5071638;28;20385;-62
2022/09/20 06:51:05;;;;;;;;;;;21.50;87.30;;;;;;5074533;28;19924;-62
2022/09/20 06:53:31;;;;;;;;;;;21.30;86.80;;;;;;5054876;28;19928;-63
2022/09/20 06:55:57;;;;;;;;;;;21.50;86.70;;;;;;5069811;28;19948;-62
2022/09/20 06:58:22;;;;;;;;;;;21.40;86.50;;;;;;5073647;28;19925;-61
2022/09/20 07:00:48;;;;;;;;;;;21.50;86.50;;;;;;5074107;28;19999;-62
2022/09/20 07:03:14;;;;;;;;;;;21.20;86.30;;;;;;5074840;28;20039;-61
2022/09/20 07:05:40;;;;;;;;;;;21.30;86.10;;;;;;5072267;28;19932;-61
2022/09/20 07:08:05;;;;;;;;;;;21.50;85.90;;;;;;5070499;28;20077;-65
2022/09/20 07:10:31;;;;;;;;;;;21.50;85.70;;;;;;5055076;28;20531;-62
2022/09/20 07:12:58;;;;;;;;;;;21.40;85.50;;;;;;5054647;28;19977;-61
2022/09/20 07:15:24;;;;;;;;;;;21.90;85.50;;;;;;5065554;28;20298;-61
2022/09/20 07:17:49;;;;;;;;;;;21.80;85.30;;;;;;5063750;28;19930;-63
2022/09/20 07:20:16;;;;;;;;;;;21.80;85.30;;;;;;5072633;28;19928;-63
2022/09/20 07:22:41;;;;;;;;;;;21.90;85.70;;;;;;5073729;28;20378;-62
2022/09/20 07:25:07;;;;;;;;;;;22.00;84.80;;;;;;5072779;28;19931;-65
2022/09/20 07:27:33;;;;;;;;;;;22.00;84.80;;;;;;5069005;28;19924;-63
2022/09/20 07:29:59;;;;;;;;;;;22.30;84.50;;;;;;5070774;28;19924;-63
2022/09/20 07:32:25;;;;;;;;;;;22.50;84.90;;;;;;5072619;28;19929;-78
2022/09/20 07:34:51;;;;;;;;;;;22.10;84.20;;;;;;5069632;28;19978;-79
2022/09/20 07:37:18;;;;;;;;;;;22.40;83.90;;;;;;5073122;28;19960;-77
2022/09/20 07:39:44;;;;;;;;;;;22.40;83.40;;;;;;5054329;28;19940;-77
2022/09/20 07:42:10;;;;;;;;;;;22.60;84.00;;;;;;5074726;28;19924;-78
2022/09/20 07:44:39;;;;;;;;;;;22.70;83.70;;;;;;5072438;28;19979;-78
2022/09/20 07:47:05;;;;;;;;;;;22.50;83.30;;;;;;5053814;28;19933;-64
2022/09/20 07:49:30;;;;;;;;;;;22.50;83.30;;;;;;5059375;28;19932;-78
2022/09/20 07:51:56;;;;;;;;;;;22.60;83.50;;;;;;5067883;28;19972;-76
2022/09/20 07:54:22;;;;;;;;;;;22.50;84.00;;;;;;5074245;28;19932;-76
2022/09/20 07:56:48;;;;;;;;;;;22.40;83.50;;;;;;5073386;28;19920;-62
2022/09/20 07:59:14;;;;;;;;;;;22.50;83.80;;;;;;5070016;28;20294;-64
2022/09/20 08:01:39;;;;;;;;;;;22.20;83.80;;;;;;5071842;28;19925;-61
2022/09/20 08:04:05;;;;;;;;;;;22.30;84.10;;;;;;5074185;28;19935;-67
2022/09/20 08:06:31;;;;;;;;;;;22.10;84.40;;;;;;5072536;28;20342;-62
2022/09/20 08:08:57;;;;;;;;;;;22.20;84.30;;;;;;5071466;28;19920;-63
2022/09/20 08:11:24;;;;;;;;;;;22.00;84.30;;;;;;5070660;28;19924;-64
2022/09/20 08:13:50;;;;;;;;;;;21.90;84.40;;;;;;5068505;28;20337;-61
2022/09/20 08:16:16;;;;;;;;;;;22.10;84.60;;;;;;5068181;28;19966;-63
2022/09/20 08:19:00;;;;;;;;;;;22.20;84.70;;;;;;5073911;28;19958;-62
2022/09/20 08:21:34;;;;;;;;;;;22.40;84.80;;;;;;5071861;28;19933;-61
2022/09/20 08:24:00;;;;;;;;;;;22.20;85.20;;;;;;5072492;28;19924;-63
2022/09/20 08:26:26;;;;;;;;;;;22.30;84.70;;;;;;5073370;28;19925;-62
2022/09/20 08:28:53;;;;;;;;;;;22.40;84.50;;;;;;5073328;28;19968;-61
2022/09/20 08:31:19;;;;;;;;;;;22.40;84.70;;;;;;5072012;28;19925;-61
2022/09/20 08:33:45;;;;;;;;;;;22.40;84.60;;;;;;5072601;28;19931;-62
2022/09/20 08:36:15;;;;;;;;;;;22.30;84.40;;;;;;5054000;28;19983;-61
2022/09/20 08:38:41;;;;;;;;;;;22.70;84.70;;;;;;5069219;28;20437;-62
2022/09/20 08:41:29;;;;;;;;;;;22.40;84.60;;;;;;5072855;28;19968;-61
2022/09/20 08:43:55;;;;;;;;;;;22.60;83.50;;;;;;5045112;28;19976;-61
2022/09/20 08:46:21;;;;;;;;;;;22.90;84.50;;;;;;5070224;28;19967;-61
2022/09/20 08:48:47;;;;;;;;;;;22.70;84.70;;;;;;5073617;28;20499;-63
2022/09/20 08:51:18;;;;;;;;;;;22.70;84.20;;;;;;5065899;28;19933;-65
2022/09/20 08:53:48;;;;;;;;;;;22.80;84.40;;;;;;5066554;28;19924;-61
2022/09/20 08:56:14;;;;;;;;;;;23.00;83.10;;;;;;5072688;28;19975;-61
2022/09/20 08:58:40;;;;;;;;;;;23.20;84.40;;;;;;5071683;28;19994;-75
2022/09/20 09:01:05;;;;;;;;;;;23.00;84.10;;;;;;5068814;28;20290;-66
2022/09/20 09:03:31;;;;;;;;;;;23.10;83.90;;;;;;5069247;28;20011;-69
2022/09/20 09:05:57;;;;;;;;;;;22.80;84.00;;;;;;5075541;28;19950;-73
2022/09/20 09:08:25;;;;;;;;;;;23.00;84.00;;;;;;5077728;28;19931;-73
2022/09/20 09:11:20;;;;;;;;;;;23.40;84.50;;;;;;5076557;28;19924;-61
2022/09/20 09:14:46;;;;;;;;;;;23.10;82.80;;;;;;5033463;28;20436;-60
2022/09/20 09:16:49;;;;;;;;;;;23.10;82.80;;;;;;5029082;28;20414;-69
2022/09/20 09:19:25;;;;;;;;;;;23.10;83.60;;;;;;5035231;28;19929;-69
2022/09/20 09:21:55;;;;;;;;;;;23.20;82.70;;;;;;5035030;28;19925;-60
2022/09/20 09:24:21;;;;;;;;;;;23.30;84.20;;;;;;5017545;28;19925;-61
2022/09/20 09:26:47;;;;;;;;;;;23.40;83.60;;;;;;5017693;28;20390;-60
2022/09/20 09:29:14;;;;;;;;;;;23.40;83.70;;;;;;5035086;28;20345;-61
2022/09/20 09:31:40;;;;;;;;;;;23.20;83.70;;;;;;5035187;28;20023;-61
2022/09/20 09:34:24;;;;;;;;;;;23.10;83.50;;;;;;5034819;28;20019;-61
2022/09/20 09:36:50;;;;;;;;;;;23.30;82.50;;;;;;5034024;28;19931;-61
2022/09/20 09:39:29;;;;;;;;;;;23.10;83.40;;;;;;5017918;28;20024;-61
2022/09/20 09:41:57;;;;;;;;;;;23.00;82.80;;;;;;5034228;28;20027;-61
2022/09/20 09:44:24;;;;;;;;;;;22.70;83.50;;;;;;5034839;28;19926;-60
2022/09/20 09:46:50;;;;;;;;;;;23.10;84.30;;;;;;5032287;28;19979;-61
2022/09/20 09:49:16;;;;;;;;;;;22.70;84.20;;;;;;5039827;28;20275;-60
2022/09/20 09:52:01;;;;;;;;;;;22.60;83.70;;;;;;5076495;28;19947;-61
2022/09/20 09:54:35;;;;;;;;;;;22.60;84.40;;;;;;5076541;28;20015;-61
2022/09/20 09:57:05;;;;;;;;;;;22.80;82.80;;;;;;5071383;28;19925;-60
2022/09/20 09:59:30;;;;;;;;;;;22.90;83.90;;;;;;5075083;28;19924;-61
2022/09/20 10:02:15;;;;;;;;;;;22.80;82.90;;;;;;5076470;28;20015;-61
2022/09/20 10:04:47;;;;;;;;;;;22.60;82.30;;;;;;5076317;28;19924;-61
2022/09/20 10:07:12;;;;;;;;;;;22.60;82.30;;;;;;5071818;28;19963;-60
2022/09/20 10:09:44;;;;;;;;;;;22.50;83.40;;;;;;5075802;28;19932;-61
2022/09/20 10:12:16;;;;;;;;;;;22.90;82.50;;;;;;5075728;28;19979;-61
2022/09/20 10:14:52;;;;;;;;;;;22.60;82.30;;;;;;5075322;28;19931;-61
2022/09/20 10:17:36;;;;;;;;;;;22.50;83.20;;;;;;5071903;28;20019;-61
2022/09/20 10:20:20;;;;;;;;;;;22.70;82.50;;;;;;5067201;28;20289;-61
2022/09/20 10:22:50;;;;;;;;;;;22.60;82.40;;;;;;5075149;28;19933;-61
2022/09/20 10:25:24;;;;;;;;;;;22.50;83.10;;;;;;5075767;28;19925;-61
2022/09/20 10:27:56;;;;;;;;;;;22.70;83.20;;;;;;5072958;28;20914;-61
2022/09/20 10:30:23;;;;;;;;;;;22.80;82.20;;;;;;5067495;28;19921;-61
2022/09/20 10:33:01;;;;;;;;;;;22.90;82.90;;;;;;5071330;28;19925;-60
2022/09/20 10:35:32;;;;;;;;;;;22.40;81.30;;;;;;5054572;28;20015;-62
2022/09/20 10:37:58;;;;;;;;;;;22.70;81.60;;;;;;5062624;28;20271;-61
2022/09/20 10:43:33;;;;;;;;;;;22.60;81.50;;;;;;5075885;28;19924;-63
2022/09/20 10:46:14;;;;;;;;;;;22.60;81.40;;;;;;5075525;28;19925;-61
2022/09/20 10:48:41;;;;;;;;;;;22.50;81.30;;;;;;5075503;28;19932;-61
2022/09/20 10:51:31;;;;;;;;;;;22.20;82.30;;;;;;5072692;28;19924;-63
2022/09/20 10:54:06;;;;;;;;;;;22.30;81.10;;;;;;5069207;28;20294;-62
2022/09/20 10:56:32;;;;;;;;;;;22.50;81.30;;;;;;5075368;28;19931;-64
2022/09/20 10:59:01;;;;;;;;;;;22.50;82.80;;;;;;5075159;28;20317;-61
2022/09/20 11:01:50;;;;;;;;;;;22.50;81.30;;;;;;5060958;28;20023;-61
2022/09/20 11:04:25;;;;;;;;;;;22.50;81.40;;;;;;5052100;28;20027;-67
2022/09/20 11:07:01;;;;;;;;;;;22.50;82.30;;;;;;5066668;28;19971;-62
2022/09/20 11:09:29;;;;;;;;;;;22.50;81.40;;;;;;5075151;28;19930;-62
2022/09/20 11:11:57;;;;;;;;;;;22.30;82.60;;;;;;5072085;28;20289;-62
2022/09/20 11:14:32;;;;;;;;;;;22.40;82.50;;;;;;5074737;28;19924;-70
2022/09/20 11:17:03;;;;;;;;;;;22.50;81.20;;;;;;5064815;28;19924;-62
2022/09/20 11:19:32;;;;;;;;;;;22.60;81.20;;;;;;5073710;28;19960;-68
2022/09/20 11:22:07;;;;;;;;;;;22.60;82.10;;;;;;5070782;28;19928;-67
2022/09/20 11:24:41;;;;;;;;;;;22.70;81.20;;;;;;5075036;28;19971;-62
2022/09/20 11:27:33;;;;;;;;;;;22.50;82.00;;;;;;5073792;28;20012;-65
2022/09/20 11:30:00;;;;;;;;;;;22.40;81.00;;;;;;5070545;28;19925;-62
2022/09/20 11:32:38;;;;;;;;;;;22.70;82.60;;;;;;5072680;28;19970;-62
2022/09/20 11:35:09;;;;;;;;;;;22.50;80.90;;;;;;5073091;28;20290;-67
2022/09/20 11:37:37;;;;;;;;;;;22.80;81.10;;;;;;5074875;28;19936;-65
2022/09/20 11:40:15;;;;;;;;;;;22.60;82.40;;;;;;5071373;28;21113;-65
2022/09/20 11:42:40;;;;;;;;;;;22.70;81.90;;;;;;5070196;28;19932;-64
2022/09/20 11:45:09;;;;;;;;;;;22.80;81.70;;;;;;5073498;28;19925;-62
2022/09/20 11:47:38;;;;;;;;;;;22.90;81.80;;;;;;5073523;28;19990;-62
2022/09/20 11:50:31;;;;;;;;;;;22.70;82.00;;;;;;5072790;28;20014;-62
2022/09/20 11:53:00;;;;;;;;;;;22.70;80.60;;;;;;5051924;28;19931;-67
2022/09/20 11:55:26;;;;;;;;;;;22.90;80.80;;;;;;5072820;28;19932;-65
2022/09/20 11:58:03;;;;;;;;;;;22.70;82.00;;;;;;5074464;28;19976;-61
2022/09/20 12:00:29;;;;;;;;;;;22.70;80.70;;;;;;5055584;28;19931;-61
2022/09/20 12:02:55;;;;;;;;;;;22.60;82.20;;;;;;5070591;28;19986;-63
2022/09/20 12:05:40;;;;;;;;;;;22.50;81.60;;;;;;5073282;28;19924;-62
2022/09/20 12:08:17;;;;;;;;;;;22.50;81.50;;;;;;5068715;28;20289;-65
2022/09/20 12:10:42;;;;;;;;;;;22.60;82.00;;;;;;5074061;28;20443;-75
2022/09/20 12:13:18;;;;;;;;;;;22.50;81.70;;;;;;5070918;28;19925;-78
2022/09/20 12:15:45;;;;;;;;;;;22.50;80.60;;;;;;5068489;28;19925;-74
2022/09/20 12:18:31;;;;;;;;;;;22.50;81.60;;;;;;5067512;28;19925;-74
2022/09/20 12:20:58;;;;;;;;;;;22.60;80.70;;;;;;5071016;28;19928;-74
2022/09/20 12:23:42;;;;;;;;;;;22.50;82.00;;;;;;5073724;28;19924;-63
2022/09/20 12:26:09;;;;;;;;;;;22.50;80.50;;;;;;5071889;28;19947;-63
2022/09/20 12:28:41;;;;;;;;;;;22.70;81.90;;;;;;5072985;28;19929;-64
2022/09/20 12:31:30;;;;;;;;;;;22.90;80.80;;;;;;5070726;28;19982;-64
2022/09/20 12:34:03;;;;;;;;;;;22.90;81.50;;;;;;5074071;28;20301;-63
2022/09/20 12:36:29;;;;;;;;;;;22.70;80.40;;;;;;5071039;28;19925;-64
2022/09/20 12:38:59;;;;;;;;;;;22.60;81.50;;;;;;5069552;28;19974;-63
2022/09/20 12:41:24;;;;;;;;;;;22.80;80.40;;;;;;5071005;28;19928;-64
2022/09/20 12:43:58;;;;;;;;;;;22.80;81.50;;;;;;5073043;28;19978;-64
2022/09/20 12:46:34;;;;;;;;;;;23.40;80.60;;;;;;5072163;28;19931;-64
2022/09/20 12:52:48;;;;;;;;;;;22.90;81.20;;;;;;5071268;28;20035;-64
2022/09/20 12:54:50;;;;;;;;;;;22.70;81.00;;;;;;5016732;28;19925;-64
2022/09/20 12:57:31;;;;;;;;;;;22.90;80.20;;;;;;5029332;28;20020;-64
2022/09/20 12:59:57;;;;;;;;;;;22.80;80.10;;;;;;5015929;28;20275;-65
2022/09/20 13:02:41;;;;;;;;;;;22.80;81.40;;;;;;5029916;28;20525;-64
2022/09/20 13:05:25;;;;;;;;;;;22.60;80.00;;;;;;5029149;28;19925;-64
2022/09/20 13:07:52;;;;;;;;;;;22.70;79.60;;;;;;5011711;28;19926;-63
2022/09/20 13:10:22;;;;;;;;;;;22.70;81.50;;;;;;5012881;28;19925;-64
2022/09/20 13:12:49;;;;;;;;;;;22.60;79.90;;;;;;5015088;28;19925;-64
2022/09/20 13:15:18;;;;;;;;;;;22.90;81.30;;;;;;5004619;28;19995;-63
2022/09/20 13:17:45;;;;;;;;;;;22.70;79.90;;;;;;5013240;28;19972;-61
2022/09/20 13:20:18;;;;;;;;;;;22.70;81.00;;;;;;5025966;28;19933;-74
2022/09/20 13:22:44;;;;;;;;;;;22.90;79.80;;;;;;5028810;28;20064;-75
2022/09/20 13:25:12;;;;;;;;;;;22.90;80.70;;;;;;5027460;28;20573;-69
2022/09/20 13:27:38;;;;;;;;;;;23.10;81.20;;;;;;5011592;28;20273;-61
2022/09/20 13:30:08;;;;;;;;;;;22.70;81.00;;;;;;5011559;28;20489;-61
2022/09/20 13:32:34;;;;;;;;;;;22.90;80.60;;;;;;5065510;28;20366;-61
2022/09/20 13:35:07;;;;;;;;;;;22.70;80.60;;;;;;5070992;28;19921;-61
2022/09/20 13:37:33;;;;;;;;;;;22.50;79.40;;;;;;5056204;28;19925;-61
2022/09/20 13:39:58;;;;;;;;;;;22.90;80.60;;;;;;5053111;28;20066;-60
2022/09/20 13:42:24;;;;;;;;;;;22.80;80.80;;;;;;5052939;28;19925;-61
2022/09/20 13:44:50;;;;;;;;;;;22.80;80.70;;;;;;5053068;28;19976;-63
2022/09/20 13:47:28;;;;;;;;;;;22.80;80.80;;;;;;5066715;28;20285;-65
2022/09/20 13:50:01;;;;;;;;;;;22.90;79.50;;;;;;5058820;28;19924;-61
2022/09/20 13:52:29;;;;;;;;;;;22.80;79.60;;;;;;5076927;28;20015;-60
2022/09/20 13:54:55;;;;;;;;;;;22.80;81.00;;;;;;5075419;28;20456;-63
2022/09/20 13:57:21;;;;;;;;;;;22.80;80.70;;;;;;5070693;28;19924;-65
2022/09/20 13:59:47;;;;;;;;;;;22.60;81.00;;;;;;5074737;28;19924;-65
2022/09/20 14:02:20;;;;;;;;;;;22.70;80.60;;;;;;5076500;28;20015;-64
2022/09/20 14:04:45;;;;;;;;;;;22.80;79.80;;;;;;5076301;28;19924;-62
2022/09/20 14:07:11;;;;;;;;;;;22.80;80.50;;;;;;5073763;28;20019;-75
2022/09/20 14:09:38;;;;;;;;;;;22.50;80.80;;;;;;5075488;28;19974;-76
2022/09/20 14:12:04;;;;;;;;;;;22.40;80.70;;;;;;5076547;28;19932;-70
2022/09/20 14:14:29;;;;;;;;;;;22.50;80.90;;;;;;5075378;28;20336;-73
2022/09/20 14:16:55;;;;;;;;;;;22.80;80.70;;;;;;5076503;28;20318;-70
2022/09/20 14:19:23;;;;;;;;;;;22.60;80.80;;;;;;5070493;28;19978;-70
2022/09/20 14:21:49;;;;;;;;;;;22.30;80.90;;;;;;5074296;28;20454;-70
2022/09/20 14:24:15;;;;;;;;;;;22.40;80.40;;;;;;5074771;28;20019;-68
2022/09/20 14:26:41;;;;;;;;;;;22.50;80.60;;;;;;5076359;28;20011;-70
2022/09/20 14:29:25;;;;;;;;;;;22.40;80.80;;;;;;5072154;28;20347;-70
2022/09/20 14:31:51;;;;;;;;;;;22.40;80.00;;;;;;5075459;28;19925;-70
2022/09/20 14:34:16;;;;;;;;;;;22.50;81.30;;;;;;5076047;28;19927;-70
2022/09/20 14:36:42;;;;;;;;;;;22.00;80.90;;;;;;5076181;28;20374;-70
2022/09/20 14:39:10;;;;;;;;;;;22.40;81.20;;;;;;5071640;28;19999;-70
2022/09/20 14:41:39;;;;;;;;;;;22.20;81.50;;;;;;5076042;28;19932;-69
2022/09/20 14:44:05;;;;;;;;;;;22.30;80.40;;;;;;5075846;28;19973;-69
2022/09/20 14:46:35;;;;;;;;;;;22.30;81.80;;;;;;5075606;28;19924;-70
2022/09/20 14:49:19;;;;;;;;;;;22.40;80.50;;;;;;5074377;28;19932;-63
2022/09/20 14:51:45;;;;;;;;;;;21.90;81.30;;;;;;5065911;28;19963;-69
2022/09/20 14:54:12;;;;;;;;;;;22.20;82.00;;;;;;5075833;28;20042;-70
2022/09/20 14:56:41;;;;;;;;;;;22.00;80.90;;;;;;5075601;28;20270;-69
2022/09/20 14:59:10;;;;;;;;;;;21.90;80.70;;;;;;5075396;28;19925;-70